sensor_id;sensor_type;location;lat;lon;timestamp;pressure;altitude;pressure_sealevel;temperature;humidity
21234;BME280;10774;42.178;26.578;2023-03-13T00:00:48;100379.25;;;6.43;100.00
21234;BME280;10774;42.178;26.578;2023-03-13T00:03:14;100372.31;;;6.39;100.00
21234;BME280;10774;42.178;26.578;2023-03-13T00:05:39;100368.81;;;6.37;100.00
21234;BME280;10774;42.178;26.578;2023-03-13T00:08:04;100376.13;;;6.32;100.00
21234;BME280;10774;42.178;26.578;2023-03-13T00:10:30;100367.69;;;6.21;100.00
21234;BME280;10774;42.178;26.578;2023-03-13T00:12:55;100380.84;;;6.25;100.00
21234;BME280;10774;42.178;26.578;2023-03-13T00:15:21;100391.81;;;6.18;100.00
21234;BME280;10774;42.178;26.578;2023-03-13T00:17:46;100392.19;;;6.52;100.00
21234;BME280;10774;42.178;26.578;2023-03-13T00:20:12;100382.69;;;6.89;100.00
21234;BME280;10774;42.178;26.578;2023-03-13T00:22:37;100382.19;;;7.01;100.00
21234;BME280;10774;42.178;26.578;2023-03-13T00:25:03;100383.84;;;7.04;100.00
21234;BME280;10774;42.178;26.578;2023-03-13T00:27:31;100381.66;;;7.14;100.00
21234;BME280;10774;42.178;26.578;2023-03-13T00:29:57;100360.59;;;7.07;100.00
21234;BME280;10774;42.178;26.578;2023-03-13T00:32:23;100363.56;;;7.00;100.00
21234;BME280;10774;42.178;26.578;2023-03-13T00:34:48;100365.28;;;7.01;100.00
21234;BME280;10774;42.178;26.578;2023-03-13T00:37:13;100379.66;;;7.19;100.00
21234;BME280;10774;42.178;26.578;2023-03-13T00:39:39;100390.47;;;7.16;100.00
21234;BME280;10774;42.178;26.578;2023-03-13T00:42:04;100384.59;;;7.07;100.00
21234;BME280;10774;42.178;26.578;2023-03-13T00:44:30;100377.81;;;6.78;100.00
21234;BME280;10774;42.178;26.578;2023-03-13T00:46:56;100389.94;;;6.43;100.00
21234;BME280;10774;42.178;26.578;2023-03-13T00:49:21;100387.75;;;6.75;100.00
21234;BME280;10774;42.178;26.578;2023-03-13T00:51:47;100376.38;;;6.26;100.00
21234;BME280;10774;42.178;26.578;2023-03-13T00:54:12;100395.56;;;6.58;100.00
21234;BME280;10774;42.178;26.578;2023-03-13T00:56:37;100370.94;;;6.51;100.00
21234;BME280;10774;42.178;26.578;2023-03-13T00:59:03;100392.00;;;6.79;100.00
21234;BME280;10774;42.178;26.578;2023-03-13T01:01:33;100379.50;;;6.59;100.00
21234;BME280;10774;42.178;26.578;2023-03-13T01:04:02;100386.94;;;6.73;100.00
21234;BME280;10774;42.178;26.578;2023-03-13T01:06:30;100386.63;;;5.91;100.00
21234;BME280;10774;42.178;26.578;2023-03-13T01:08:55;100384.69;;;6.18;100.00
21234;BME280;10774;42.178;26.578;2023-03-13T01:11:24;100387.53;;;6.36;100.00
21234;BME280;10774;42.178;26.578;2023-03-13T01:14:34;100388.06;;;6.45;100.00
21234;BME280;10774;42.178;26.578;2023-03-13T01:16:41;100390.78;;;6.44;100.00
21234;BME280;10774;42.178;26.578;2023-03-13T01:19:12;100393.75;;;6.36;100.00
21234;BME280;10774;42.178;26.578;2023-03-13T01:21:38;100393.38;;;6.45;100.00
21234;BME280;10774;42.178;26.578;2023-03-13T01:24:04;100395.13;;;6.46;100.00
21234;BME280;10774;42.178;26.578;2023-03-13T01:26:30;100389.00;;;6.21;100.00
21234;BME280;10774;42.178;26.578;2023-03-13T01:28:56;100380.56;;;6.10;100.00
21234;BME280;10774;42.178;26.578;2023-03-13T01:31:24;100397.84;;;6.23;100.00
21234;BME280;10774;42.178;26.578;2023-03-13T01:33:56;100399.91;;;6.15;100.00
21234;BME280;10774;42.178;26.578;2023-03-13T01:36:22;100396.06;;;5.75;100.00
21234;BME280;10774;42.178;26.578;2023-03-13T01:38:50;100408.34;;;5.79;100.00
21234;BME280;10774;42.178;26.578;2023-03-13T01:41:16;100410.19;;;6.02;100.00
21234;BME280;10774;42.178;26.578;2023-03-13T01:43:42;100409.19;;;6.05;100.00
21234;BME280;10774;42.178;26.578;2023-03-13T01:49:11;100424.78;;;5.90;100.00
21234;BME280;10774;42.178;26.578;2023-03-13T01:54:23;100428.59;;;5.83;100.00
21234;BME280;10774;42.178;26.578;2023-03-13T01:56:57;100429.34;;;5.38;100.00
21234;BME280;10774;42.178;26.578;2023-03-13T01:59:27;100427.53;;;5.64;100.00
21234;BME280;10774;42.178;26.578;2023-03-13T02:01:56;100430.31;;;5.61;100.00
21234;BME280;10774;42.178;26.578;2023-03-13T02:04:23;100433.47;;;5.72;100.00
21234;BME280;10774;42.178;26.578;2023-03-13T02:06:53;100435.72;;;5.08;100.00
21234;BME280;10774;42.178;26.578;2023-03-13T02:09:23;100442.03;;;5.30;100.00
21234;BME280;10774;42.178;26.578;2023-03-13T02:12:03;100452.25;;;5.42;100.00
21234;BME280;10774;42.178;26.578;2023-03-13T02:14:34;100454.44;;;5.56;100.00
21234;BME280;10774;42.178;26.578;2023-03-13T02:17:02;100458.22;;;5.24;100.00
21234;BME280;10774;42.178;26.578;2023-03-13T02:19:29;100466.78;;;5.07;100.00
21234;BME280;10774;42.178;26.578;2023-03-13T02:27:21;100476.84;;;5.50;100.00
21234;BME280;10774;42.178;26.578;2023-03-13T02:29:47;100476.69;;;5.55;100.00
21234;BME280;10774;42.178;26.578;2023-03-13T02:32:14;100485.63;;;5.53;100.00
21234;BME280;10774;42.178;26.578;2023-03-13T02:34:41;100484.75;;;5.52;100.00
21234;BME280;10774;42.178;26.578;2023-03-13T02:37:07;100484.63;;;5.30;100.00
21234;BME280;10774;42.178;26.578;2023-03-13T02:39:36;100498.22;;;5.47;100.00
21234;BME280;10774;42.178;26.578;2023-03-13T02:42:03;100503.03;;;5.36;100.00
21234;BME280;10774;42.178;26.578;2023-03-13T02:44:29;100498.94;;;5.26;100.00
21234;BME280;10774;42.178;26.578;2023-03-13T02:46:55;100513.31;;;5.48;100.00
21234;BME280;10774;42.178;26.578;2023-03-13T02:49:26;100503.16;;;5.07;100.00
21234;BME280;10774;42.178;26.578;2023-03-13T02:51:59;100512.75;;;5.11;100.00
21234;BME280;10774;42.178;26.578;2023-03-13T02:54:33;100508.84;;;4.94;100.00
21234;BME280;10774;42.178;26.578;2023-03-13T02:57:02;100513.22;;;4.97;100.00
21234;BME280;10774;42.178;26.578;2023-03-13T02:59:28;100513.75;;;4.80;100.00
21234;BME280;10774;42.178;26.578;2023-03-13T03:01:54;100516.56;;;4.74;100.00
21234;BME280;10774;42.178;26.578;2023-03-13T03:04:21;100512.28;;;4.40;100.00
21234;BME280;10774;42.178;26.578;2023-03-13T03:06:47;100521.13;;;4.11;100.00
21234;BME280;10774;42.178;26.578;2023-03-13T03:09:13;100509.34;;;3.56;100.00
21234;BME280;10774;42.178;26.578;2023-03-13T03:11:38;100530.34;;;3.65;100.00
21234;BME280;10774;42.178;26.578;2023-03-13T03:14:04;100516.09;;;3.34;100.00
21234;BME280;10774;42.178;26.578;2023-03-13T03:16:30;100533.28;;;3.53;100.00
21234;BME280;10774;42.178;26.578;2023-03-13T03:18:55;100517.69;;;3.75;100.00
21234;BME280;10774;42.178;26.578;2023-03-13T03:21:21;100526.25;;;3.86;100.00
21234;BME280;10774;42.178;26.578;2023-03-13T03:23:48;100529.00;;;3.82;100.00
21234;BME280;10774;42.178;26.578;2023-03-13T03:26:14;100536.75;;;3.89;100.00
21234;BME280;10774;42.178;26.578;2023-03-13T03:28:40;100532.63;;;4.10;100.00
21234;BME280;10774;42.178;26.578;2023-03-13T03:31:07;100536.78;;;4.20;100.00
21234;BME280;10774;42.178;26.578;2023-03-13T03:33:33;100554.06;;;4.04;100.00
21234;BME280;10774;42.178;26.578;2023-03-13T03:36:05;100541.22;;;4.20;100.00
21234;BME280;10774;42.178;26.578;2023-03-13T03:38:31;100541.97;;;4.25;100.00
21234;BME280;10774;42.178;26.578;2023-03-13T03:40:57;100548.88;;;4.00;100.00
21234;BME280;10774;42.178;26.578;2023-03-13T03:43:23;100555.59;;;4.13;100.00
21234;BME280;10774;42.178;26.578;2023-03-13T03:45:48;100558.59;;;4.01;100.00
21234;BME280;10774;42.178;26.578;2023-03-13T03:48:14;100558.34;;;3.43;100.00
21234;BME280;10774;42.178;26.578;2023-03-13T03:50:39;100555.97;;;3.32;100.00
21234;BME280;10774;42.178;26.578;2023-03-13T03:53:05;100552.97;;;3.80;100.00
21234;BME280;10774;42.178;26.578;2023-03-13T03:55:30;100565.91;;;3.92;100.00
21234;BME280;10774;42.178;26.578;2023-03-13T03:57:56;100565.31;;;3.81;100.00
21234;BME280;10774;42.178;26.578;2023-03-13T04:00:21;100569.59;;;3.87;100.00
21234;BME280;10774;42.178;26.578;2023-03-13T04:02:47;100574.50;;;3.68;100.00
21234;BME280;10774;42.178;26.578;2023-03-13T04:05:12;100584.47;;;3.60;100.00
21234;BME280;10774;42.178;26.578;2023-03-13T04:07:37;100581.06;;;3.53;100.00
21234;BME280;10774;42.178;26.578;2023-03-13T04:10:03;100581.88;;;3.57;100.00
21234;BME280;10774;42.178;26.578;2023-03-13T04:12:29;100586.84;;;3.71;100.00
21234;BME280;10774;42.178;26.578;2023-03-13T04:14:54;100584.28;;;3.66;100.00
21234;BME280;10774;42.178;26.578;2023-03-13T04:17:20;100589.28;;;3.80;100.00
21234;BME280;10774;42.178;26.578;2023-03-13T04:19:45;100582.75;;;3.91;100.00
21234;BME280;10774;42.178;26.578;2023-03-13T04:22:11;100596.81;;;3.95;100.00
21234;BME280;10774;42.178;26.578;2023-03-13T04:24:36;100586.34;;;3.90;100.00
21234;BME280;10774;42.178;26.578;2023-03-13T04:27:02;100593.22;;;3.98;100.00
21234;BME280;10774;42.178;26.578;2023-03-13T04:29:31;100605.91;;;4.19;100.00
21234;BME280;10774;42.178;26.578;2023-03-13T04:31:56;100598.97;;;4.13;100.00
21234;BME280;10774;42.178;26.578;2023-03-13T04:34:22;100607.66;;;4.20;100.00
21234;BME280;10774;42.178;26.578;2023-03-13T04:36:47;100596.84;;;4.26;100.00
21234;BME280;10774;42.178;26.578;2023-03-13T04:39:12;100608.06;;;4.37;100.00
21234;BME280;10774;42.178;26.578;2023-03-13T04:41:38;100610.50;;;4.45;100.00
21234;BME280;10774;42.178;26.578;2023-03-13T04:44:03;100604.41;;;4.41;100.00
21234;BME280;10774;42.178;26.578;2023-03-13T04:46:29;100618.50;;;4.45;100.00
21234;BME280;10774;42.178;26.578;2023-03-13T04:48:54;100612.34;;;4.43;100.00
21234;BME280;10774;42.178;26.578;2023-03-13T04:51:20;100606.72;;;4.23;100.00
21234;BME280;10774;42.178;26.578;2023-03-13T04:53:45;100618.78;;;4.34;100.00
21234;BME280;10774;42.178;26.578;2023-03-13T04:56:19;100616.63;;;4.49;100.00
21234;BME280;10774;42.178;26.578;2023-03-13T04:58:45;100615.81;;;4.45;100.00
21234;BME280;10774;42.178;26.578;2023-03-13T05:01:11;100625.66;;;4.43;100.00
21234;BME280;10774;42.178;26.578;2023-03-13T05:03:36;100629.28;;;4.06;100.00
21234;BME280;10774;42.178;26.578;2023-03-13T05:06:02;100628.94;;;3.84;100.00
21234;BME280;10774;42.178;26.578;2023-03-13T05:08:27;100642.97;;;3.55;100.00
21234;BME280;10774;42.178;26.578;2023-03-13T05:10:53;100645.78;;;3.48;100.00
21234;BME280;10774;42.178;26.578;2023-03-13T05:13:18;100654.00;;;3.37;100.00
21234;BME280;10774;42.178;26.578;2023-03-13T05:15:43;100658.94;;;3.52;100.00
21234;BME280;10774;42.178;26.578;2023-03-13T05:18:09;100661.34;;;3.63;100.00
21234;BME280;10774;42.178;26.578;2023-03-13T05:20:34;100664.38;;;3.48;100.00
21234;BME280;10774;42.178;26.578;2023-03-13T05:22:59;100670.69;;;3.42;100.00
21234;BME280;10774;42.178;26.578;2023-03-13T05:25:25;100671.69;;;2.98;100.00
21234;BME280;10774;42.178;26.578;2023-03-13T05:27:50;100678.53;;;2.66;100.00
21234;BME280;10774;42.178;26.578;2023-03-13T05:30:16;100676.16;;;2.96;100.00
21234;BME280;10774;42.178;26.578;2023-03-13T05:32:41;100670.56;;;2.66;100.00
21234;BME280;10774;42.178;26.578;2023-03-13T05:35:07;100679.88;;;2.87;100.00
21234;BME280;10774;42.178;26.578;2023-03-13T05:37:32;100687.72;;;2.92;100.00
21234;BME280;10774;42.178;26.578;2023-03-13T05:39:58;100684.06;;;2.54;100.00
21234;BME280;10774;42.178;26.578;2023-03-13T05:42:23;100689.16;;;2.63;100.00
21234;BME280;10774;42.178;26.578;2023-03-13T05:44:50;100682.47;;;2.45;100.00
21234;BME280;10774;42.178;26.578;2023-03-13T05:47:16;100688.91;;;2.77;100.00
21234;BME280;10774;42.178;26.578;2023-03-13T05:49:43;100684.94;;;2.53;100.00
21234;BME280;10774;42.178;26.578;2023-03-13T05:52:08;100698.88;;;2.64;100.00
21234;BME280;10774;42.178;26.578;2023-03-13T05:54:33;100690.84;;;3.12;100.00
21234;BME280;10774;42.178;26.578;2023-03-13T05:56:59;100707.25;;;2.87;100.00
21234;BME280;10774;42.178;26.578;2023-03-13T05:59:24;100699.81;;;3.05;100.00
21234;BME280;10774;42.178;26.578;2023-03-13T06:01:50;100710.38;;;3.08;100.00
21234;BME280;10774;42.178;26.578;2023-03-13T06:04:17;100712.41;;;2.94;100.00
21234;BME280;10774;42.178;26.578;2023-03-13T06:06:43;100710.28;;;3.11;100.00
21234;BME280;10774;42.178;26.578;2023-03-13T06:09:08;100713.47;;;3.28;100.00
21234;BME280;10774;42.178;26.578;2023-03-13T06:11:36;100716.66;;;3.42;100.00
21234;BME280;10774;42.178;26.578;2023-03-13T06:14:01;100726.59;;;3.73;100.00
21234;BME280;10774;42.178;26.578;2023-03-13T06:16:26;100712.28;;;3.80;100.00
21234;BME280;10774;42.178;26.578;2023-03-13T06:18:52;100720.91;;;3.88;100.00
21234;BME280;10774;42.178;26.578;2023-03-13T06:21:17;100710.31;;;4.57;100.00
21234;BME280;10774;42.178;26.578;2023-03-13T06:23:43;100713.66;;;4.63;100.00
21234;BME280;10774;42.178;26.578;2023-03-13T06:26:08;100710.78;;;5.04;100.00
21234;BME280;10774;42.178;26.578;2023-03-13T06:28:34;100708.22;;;5.60;100.00
21234;BME280;10774;42.178;26.578;2023-03-13T06:31:04;100716.53;;;4.88;100.00
21234;BME280;10774;42.178;26.578;2023-03-13T06:33:30;100722.22;;;4.42;100.00
21234;BME280;10774;42.178;26.578;2023-03-13T06:35:56;100723.25;;;4.36;100.00
21234;BME280;10774;42.178;26.578;2023-03-13T06:38:23;100718.22;;;4.60;100.00
21234;BME280;10774;42.178;26.578;2023-03-13T06:40:48;100721.13;;;4.51;100.00
21234;BME280;10774;42.178;26.578;2023-03-13T06:43:14;100719.94;;;4.93;100.00
21234;BME280;10774;42.178;26.578;2023-03-13T06:45:39;100714.34;;;5.03;100.00
21234;BME280;10774;42.178;26.578;2023-03-13T06:48:05;100722.53;;;5.26;100.00
21234;BME280;10774;42.178;26.578;2023-03-13T06:50:30;100720.16;;;5.17;100.00
21234;BME280;10774;42.178;26.578;2023-03-13T06:52:55;100720.72;;;5.28;100.00
21234;BME280;10774;42.178;26.578;2023-03-13T06:55:22;100726.00;;;5.58;100.00
21234;BME280;10774;42.178;26.578;2023-03-13T06:57:51;100725.31;;;6.09;100.00
21234;BME280;10774;42.178;26.578;2023-03-13T07:00:18;100728.91;;;6.08;100.00
21234;BME280;10774;42.178;26.578;2023-03-13T07:02:43;100737.97;;;6.28;100.00
21234;BME280;10774;42.178;26.578;2023-03-13T07:05:09;100722.94;;;6.26;99.79
21234;BME280;10774;42.178;26.578;2023-03-13T07:07:34;100727.78;;;6.66;97.75
21234;BME280;10774;42.178;26.578;2023-03-13T07:10:00;100731.16;;;6.71;96.09
21234;BME280;10774;42.178;26.578;2023-03-13T07:12:26;100736.91;;;6.34;95.33
21234;BME280;10774;42.178;26.578;2023-03-13T07:14:51;100744.75;;;6.64;96.07
21234;BME280;10774;42.178;26.578;2023-03-13T07:17:17;100746.16;;;6.74;96.51
21234;BME280;10774;42.178;26.578;2023-03-13T07:19:42;100744.16;;;7.29;93.25
21234;BME280;10774;42.178;26.578;2023-03-13T07:22:07;100741.13;;;7.62;90.08
21234;BME280;10774;42.178;26.578;2023-03-13T07:24:33;100752.06;;;7.55;88.95
21234;BME280;10774;42.178;26.578;2023-03-13T07:26:58;100751.84;;;8.05;85.19
21234;BME280;10774;42.178;26.578;2023-03-13T07:29:24;100747.13;;;8.34;79.45
21234;BME280;10774;42.178;26.578;2023-03-13T07:31:49;100746.16;;;8.57;75.23
21234;BME280;10774;42.178;26.578;2023-03-13T07:34:15;100751.84;;;8.49;68.91
21234;BME280;10774;42.178;26.578;2023-03-13T07:36:40;100747.38;;;8.28;70.44
21234;BME280;10774;42.178;26.578;2023-03-13T07:39:07;100747.09;;;8.56;66.22
21234;BME280;10774;42.178;26.578;2023-03-13T07:41:32;100752.22;;;8.40;63.96
21234;BME280;10774;42.178;26.578;2023-03-13T07:43:58;100734.59;;;8.77;60.66
21234;BME280;10774;42.178;26.578;2023-03-13T07:46:24;100740.47;;;9.05;61.79
21234;BME280;10774;42.178;26.578;2023-03-13T07:48:49;100743.78;;;9.10;59.88
21234;BME280;10774;42.178;26.578;2023-03-13T07:51:21;100738.25;;;8.95;58.47
21234;BME280;10774;42.178;26.578;2023-03-13T07:53:47;100735.78;;;8.90;59.70
21234;BME280;10774;42.178;26.578;2023-03-13T07:56:21;100742.34;;;8.42;61.56
21234;BME280;10774;42.178;26.578;2023-03-13T07:58:47;100736.19;;;8.40;58.95
21234;BME280;10774;42.178;26.578;2023-03-13T08:01:25;100739.66;;;9.03;61.99
21234;BME280;10774;42.178;26.578;2023-03-13T08:03:52;100733.50;;;9.01;57.29
21234;BME280;10774;42.178;26.578;2023-03-13T08:06:24;100730.00;;;9.20;57.05
21234;BME280;10774;42.178;26.578;2023-03-13T08:08:51;100730.13;;;9.16;54.95
21234;BME280;10774;42.178;26.578;2023-03-13T08:11:20;100740.75;;;8.58;56.33
21234;BME280;10774;42.178;26.578;2023-03-13T08:13:47;100731.16;;;8.94;58.05
21234;BME280;10774;42.178;26.578;2023-03-13T08:16:18;100721.25;;;9.35;57.92
21234;BME280;10774;42.178;26.578;2023-03-13T08:18:46;100728.34;;;9.74;56.86
21234;BME280;10774;42.178;26.578;2023-03-13T08:21:17;100725.75;;;9.72;53.86
21234;BME280;10774;42.178;26.578;2023-03-13T08:23:43;100712.91;;;9.79;54.83
21234;BME280;10774;42.178;26.578;2023-03-13T08:26:11;100729.00;;;10.34;54.96
21234;BME280;10774;42.178;26.578;2023-03-13T08:28:37;100717.00;;;10.05;49.94
21234;BME280;10774;42.178;26.578;2023-03-13T08:33:36;100717.56;;;10.11;50.06
21234;BME280;10774;42.178;26.578;2023-03-13T08:36:13;100717.00;;;9.86;49.08
21234;BME280;10774;42.178;26.578;2023-03-13T08:38:40;100722.00;;;10.12;47.01
21234;BME280;10774;42.178;26.578;2023-03-13T08:41:33;100721.50;;;10.40;47.19
21234;BME280;10774;42.178;26.578;2023-03-13T08:43:58;100719.59;;;10.60;46.74
21234;BME280;10774;42.178;26.578;2023-03-13T08:46:24;100727.72;;;10.24;46.23
21234;BME280;10774;42.178;26.578;2023-03-13T08:48:51;100716.63;;;10.12;45.05
21234;BME280;10774;42.178;26.578;2023-03-13T08:51:18;100717.63;;;10.46;45.37
21234;BME280;10774;42.178;26.578;2023-03-13T08:53:44;100709.81;;;10.76;44.58
21234;BME280;10774;42.178;26.578;2023-03-13T08:56:13;100717.59;;;10.81;44.01
21234;BME280;10774;42.178;26.578;2023-03-13T08:58:38;100714.06;;;10.63;42.94
21234;BME280;10774;42.178;26.578;2023-03-13T09:01:06;100714.59;;;11.04;42.54
21234;BME280;10774;42.178;26.578;2023-03-13T09:03:32;100705.66;;;11.04;43.02
21234;BME280;10774;42.178;26.578;2023-03-13T09:05:58;100715.53;;;11.03;42.08
21234;BME280;10774;42.178;26.578;2023-03-13T09:08:25;100712.69;;;11.06;40.75
21234;BME280;10774;42.178;26.578;2023-03-13T09:10:55;100708.53;;;11.16;42.10
21234;BME280;10774;42.178;26.578;2023-03-13T09:13:21;100706.13;;;11.27;41.34
21234;BME280;10774;42.178;26.578;2023-03-13T09:15:59;100711.63;;;11.42;41.88
21234;BME280;10774;42.178;26.578;2023-03-13T09:18:25;100703.41;;;11.45;40.74
21234;BME280;10774;42.178;26.578;2023-03-13T09:20:51;100711.22;;;11.65;39.53
21234;BME280;10774;42.178;26.578;2023-03-13T09:23:17;100712.75;;;11.38;39.26
21234;BME280;10774;42.178;26.578;2023-03-13T09:25:43;100711.88;;;11.37;39.80
21234;BME280;10774;42.178;26.578;2023-03-13T09:28:09;100710.44;;;11.63;40.08
21234;BME280;10774;42.178;26.578;2023-03-13T09:30:34;100712.41;;;11.75;39.30
21234;BME280;10774;42.178;26.578;2023-03-13T09:32:59;100716.28;;;12.03;39.59
21234;BME280;10774;42.178;26.578;2023-03-13T09:35:25;100705.50;;;12.19;39.39
21234;BME280;10774;42.178;26.578;2023-03-13T09:37:50;100700.41;;;12.28;38.88
21234;BME280;10774;42.178;26.578;2023-03-13T09:40:18;100700.25;;;12.32;39.44
21234;BME280;10774;42.178;26.578;2023-03-13T09:43:23;100703.03;;;12.30;38.50
21234;BME280;10774;42.178;26.578;2023-03-13T09:45:51;100694.06;;;11.84;37.03
21234;BME280;10774;42.178;26.578;2023-03-13T09:48:33;100701.34;;;12.13;37.24
21234;BME280;10774;42.178;26.578;2023-03-13T09:51:22;100699.97;;;12.36;37.64
21234;BME280;10774;42.178;26.578;2023-03-13T09:54:08;100700.78;;;11.59;36.42
21234;BME280;10774;42.178;26.578;2023-03-13T09:56:44;100697.47;;;11.87;38.35
21234;BME280;10774;42.178;26.578;2023-03-13T09:59:19;100693.94;;;12.47;37.46
21234;BME280;10774;42.178;26.578;2023-03-13T10:01:48;100682.56;;;12.72;36.55
21234;BME280;10774;42.178;26.578;2023-03-13T10:04:45;100689.75;;;12.57;36.21
21234;BME280;10774;42.178;26.578;2023-03-13T10:07:13;100683.97;;;12.63;35.47
21234;BME280;10774;42.178;26.578;2023-03-13T10:09:38;100673.81;;;12.82;36.22
21234;BME280;10774;42.178;26.578;2023-03-13T10:12:22;100688.75;;;12.88;37.25
21234;BME280;10774;42.178;26.578;2023-03-13T10:17:42;100669.22;;;12.99;36.80
21234;BME280;10774;42.178;26.578;2023-03-13T10:22:41;100662.28;;;13.38;36.33
21234;BME280;10774;42.178;26.578;2023-03-13T10:25:24;100660.75;;;13.19;36.74
21234;BME280;10774;42.178;26.578;2023-03-13T10:27:51;100665.63;;;13.13;35.08
21234;BME280;10774;42.178;26.578;2023-03-13T10:30:30;100652.88;;;13.30;35.20
21234;BME280;10774;42.178;26.578;2023-03-13T10:33:13;100645.94;;;13.26;34.98
21234;BME280;10774;42.178;26.578;2023-03-13T10:35:43;100634.84;;;13.45;34.22
21234;BME280;10774;42.178;26.578;2023-03-13T10:38:14;100643.22;;;13.41;34.20
21234;BME280;10774;42.178;26.578;2023-03-13T10:40:41;100638.56;;;13.57;35.50
21234;BME280;10774;42.178;26.578;2023-03-13T10:43:19;100628.22;;;13.64;35.65
21234;BME280;10774;42.178;26.578;2023-03-13T10:45:45;100634.34;;;13.80;35.16
21234;BME280;10774;42.178;26.578;2023-03-13T10:48:18;100624.56;;;13.65;35.11
21234;BME280;10774;42.178;26.578;2023-03-13T10:50:50;100627.66;;;13.85;34.87
21234;BME280;10774;42.178;26.578;2023-03-13T10:53:30;100629.66;;;13.96;34.89
21234;BME280;10774;42.178;26.578;2023-03-13T10:56:02;100624.00;;;13.59;33.95
21234;BME280;10774;42.178;26.578;2023-03-13T10:58:39;100632.72;;;13.77;34.76
21234;BME280;10774;42.178;26.578;2023-03-13T11:03:44;100627.75;;;14.11;33.60
21234;BME280;10774;42.178;26.578;2023-03-13T11:06:29;100622.94;;;13.89;32.96
21234;BME280;10774;42.178;26.578;2023-03-13T11:09:12;100620.03;;;13.65;32.95
21234;BME280;10774;42.178;26.578;2023-03-13T11:11:55;100616.84;;;13.73;32.06
21234;BME280;10774;42.178;26.578;2023-03-13T11:14:26;100615.38;;;13.81;31.80
21234;BME280;10774;42.178;26.578;2023-03-13T11:17:05;100621.38;;;13.72;32.77
21234;BME280;10774;42.178;26.578;2023-03-13T11:28:45;100604.47;;;14.35;33.52
21234;BME280;10774;42.178;26.578;2023-03-13T11:31:29;100584.38;;;14.27;31.54
21234;BME280;10774;42.178;26.578;2023-03-13T11:36:44;100583.47;;;14.01;31.60
21234;BME280;10774;42.178;26.578;2023-03-13T11:47:27;100584.84;;;14.84;32.27
21234;BME280;10774;42.178;26.578;2023-03-13T12:00:43;100568.06;;;15.41;31.66
21234;BME280;10774;42.178;26.578;2023-03-13T12:03:18;100553.16;;;15.36;31.23
21234;BME280;10774;42.178;26.578;2023-03-13T12:05:51;100555.72;;;15.37;32.22
21234;BME280;10774;42.178;26.578;2023-03-13T12:11:22;100551.84;;;15.89;30.89
21234;BME280;10774;42.178;26.578;2023-03-13T12:14:00;100539.44;;;15.63;31.69
21234;BME280;10774;42.178;26.578;2023-03-13T12:16:54;100548.06;;;15.68;31.28
21234;BME280;10774;42.178;26.578;2023-03-13T12:23:31;100546.69;;;15.26;30.78
21234;BME280;10774;42.178;26.578;2023-03-13T12:25:44;100528.69;;;15.37;30.78
21234;BME280;10774;42.178;26.578;2023-03-13T12:28:35;100541.56;;;15.10;31.14
21234;BME280;10774;42.178;26.578;2023-03-13T12:31:13;100529.50;;;15.51;31.60
21234;BME280;10774;42.178;26.578;2023-03-13T12:33:44;100527.97;;;15.94;30.31
21234;BME280;10774;42.178;26.578;2023-03-13T12:36:13;100528.75;;;16.08;30.04
21234;BME280;10774;42.178;26.578;2023-03-13T12:38:48;100525.97;;;16.32;30.64
21234;BME280;10774;42.178;26.578;2023-03-13T12:41:37;100522.19;;;16.45;30.51
21234;BME280;10774;42.178;26.578;2023-03-13T12:44:14;100517.88;;;16.65;29.96
21234;BME280;10774;42.178;26.578;2023-03-13T12:46:47;100515.28;;;16.41;30.33
21234;BME280;10774;42.178;26.578;2023-03-13T12:55:19;100520.06;;;15.80;29.67
21234;BME280;10774;42.178;26.578;2023-03-13T13:00:42;100517.00;;;16.31;29.46
21234;BME280;10774;42.178;26.578;2023-03-13T13:06:17;100507.88;;;16.66;29.92
21234;BME280;10774;42.178;26.578;2023-03-13T13:09:05;100509.38;;;16.59;29.68
21234;BME280;10774;42.178;26.578;2023-03-13T13:24:56;100519.91;;;18.25;29.10
21234;BME280;10774;42.178;26.578;2023-03-13T13:29:58;100518.69;;;18.39;28.74
21234;BME280;10774;42.178;26.578;2023-03-13T13:35:04;100518.44;;;18.42;27.19
21234;BME280;10774;42.178;26.578;2023-03-13T13:37:33;100514.72;;;17.81;28.52
21234;BME280;10774;42.178;26.578;2023-03-13T13:40:28;100518.84;;;18.17;28.71
21234;BME280;10774;42.178;26.578;2023-03-13T13:43:00;100523.22;;;18.80;28.20
21234;BME280;10774;42.178;26.578;2023-03-13T13:45:32;100509.75;;;18.48;27.40
21234;BME280;10774;42.178;26.578;2023-03-13T13:48:24;100515.63;;;18.53;27.23
21234;BME280;10774;42.178;26.578;2023-03-13T14:10:25;100518.06;;;18.26;27.13
21234;BME280;10774;42.178;26.578;2023-03-13T14:12:57;100517.53;;;18.32;27.69
21234;BME280;10774;42.178;26.578;2023-03-13T14:15:31;100512.44;;;18.69;27.73
21234;BME280;10774;42.178;26.578;2023-03-13T14:18:00;100520.91;;;18.76;27.04
21234;BME280;10774;42.178;26.578;2023-03-13T14:20:34;100516.94;;;18.80;27.61
21234;BME280;10774;42.178;26.578;2023-03-13T14:26:07;100518.09;;;18.87;26.54
21234;BME280;10774;42.178;26.578;2023-03-13T14:28:33;100521.47;;;18.70;27.00
21234;BME280;10774;42.178;26.578;2023-03-13T14:30:58;100520.63;;;18.48;26.75
21234;BME280;10774;42.178;26.578;2023-03-13T14:33:25;100522.97;;;18.32;26.21
21234;BME280;10774;42.178;26.578;2023-03-13T14:35:53;100522.97;;;18.84;26.52
21234;BME280;10774;42.178;26.578;2023-03-13T14:38:25;100524.06;;;18.29;26.71
21234;BME280;10774;42.178;26.578;2023-03-13T14:40:52;100524.00;;;18.62;27.09